Time;durP1;ratioP1;P1;durP2;ratioP2;P2;SDS_P1;SDS_P2;PMS_P1;PMS_P2;Temp;Humidity;BMP_temperature;BMP_pressure;BME280_temperature;BME280_humidity;BME280_pressure;Samples;Min_cycle;Max_cycle;Signal;HPM_P1;HPM_P2
2021/09/18 00:04:13;;;;;;;7.87;6.60;;;;;;;;;;6380748;22;20420;-73
2021/09/18 00:06:40;;;;;;;8.07;7.17;;;;;;;;;;6370228;22;20380;-74
2021/09/18 00:09:06;;;;;;;8.53;7.73;;;;;;;;;;6380696;22;20815;-73
2021/09/18 00:11:32;;;;;;;6.93;6.27;;;;;;;;;;6380197;22;20466;-73
2021/09/18 00:13:58;;;;;;;7.43;6.73;;;;;;;;;;6341828;22;20936;-73
2021/09/18 00:19:27;;;;;;;7.20;6.50;;;;;;;;;;6380703;22;20803;-74
2021/09/18 00:21:53;;;;;;;7.40;6.80;;;;;;;;;;6370098;22;20371;-74
2021/09/18 00:24:19;;;;;;;8.20;7.40;;;;;;;;;;6370414;22;20818;-73
2021/09/18 00:26:45;;;;;;;8.70;7.80;;;;;;;;;;6369658;22;20761;-74
2021/09/18 00:29:11;;;;;;;8.60;7.80;;;;;;;;;;6370134;22;20366;-74
2021/09/18 00:34:40;;;;;;;7.30;6.60;;;;;;;;;;6380681;22;20394;-74
2021/09/18 00:37:06;;;;;;;7.83;6.23;;;;;;;;;;6370167;22;20829;-74
2021/09/18 00:39:32;;;;;;;7.60;6.90;;;;;;;;;;6368906;22;20526;-74
2021/09/18 00:41:58;;;;;;;8.33;7.53;;;;;;;;;;6369561;22;20835;-74
2021/09/18 00:44:27;;;;;;;7.70;6.83;;;;;;;;;;6380391;22;20462;-74
2021/09/18 00:49:57;;;;;;;8.90;7.07;;;;;;;;;;6380318;22;20730;-74
2021/09/18 00:52:23;;;;;;;8.47;6.50;;;;;;;;;;6369781;22;20403;-74
2021/09/18 00:54:49;;;;;;;9.40;7.50;;;;;;;;;;6380645;22;20478;-74
2021/09/18 00:57:16;;;;;;;6.80;6.00;;;;;;;;;;6370025;22;20367;-74
2021/09/18 00:59:42;;;;;;;7.63;6.40;;;;;;;;;;6369812;22;20794;-74
2021/09/18 01:05:12;;;;;;;6.57;5.90;;;;;;;;;;6380580;22;20365;-74
2021/09/18 01:07:38;;;;;;;7.00;6.30;;;;;;;;;;6380795;22;20838;-74
2021/09/18 01:10:05;;;;;;;6.90;6.30;;;;;;;;;;6369795;22;20370;-73
2021/09/18 01:12:31;;;;;;;7.17;6.57;;;;;;;;;;6369821;22;20407;-74
2021/09/18 01:20:47;;;;;;;6.43;5.83;;;;;;;;;;6380397;22;20825;-74
2021/09/18 01:23:20;;;;;;;7.00;6.43;;;;;;;;;;6380357;22;20395;-74
2021/09/18 01:25:46;;;;;;;8.73;5.90;;;;;;;;;;6378884;22;20375;-74
2021/09/18 01:28:12;;;;;;;7.23;6.53;;;;;;;;;;6341963;22;20438;-74
2021/09/18 01:30:38;;;;;;;6.73;6.10;;;;;;;;;;6380712;22;20421;-74
2021/09/18 01:33:05;;;;;;;6.50;5.87;;;;;;;;;;6370146;22;20402;-73
2021/09/18 01:35:32;;;;;;;6.90;6.23;;;;;;;;;;6371597;22;20432;-73
2021/09/18 01:37:58;;;;;;;7.47;6.77;;;;;;;;;;6384837;22;20385;-74
2021/09/18 01:40:27;;;;;;;7.50;6.53;;;;;;;;;;6383629;22;20699;-74
2021/09/18 01:42:53;;;;;;;8.17;7.37;;;;;;;;;;6380900;22;20420;-74
2021/09/18 01:45:19;;;;;;;7.27;6.60;;;;;;;;;;6371553;22;20459;-74
2021/09/18 01:47:46;;;;;;;6.13;5.57;;;;;;;;;;6382104;22;20846;-73
2021/09/18 01:50:29;;;;;;;7.57;6.87;;;;;;;;;;6382193;22;20402;-73
2021/09/18 01:52:55;;;;;;;8.43;7.63;;;;;;;;;;6343164;22;20435;-73
2021/09/18 01:55:21;;;;;;;7.43;6.73;;;;;;;;;;6371236;22;20378;-74
2021/09/18 01:57:51;;;;;;;8.10;7.30;;;;;;;;;;6371427;22;20363;-73
2021/09/18 02:00:18;;;;;;;7.93;7.23;;;;;;;;;;6381950;22;20383;-73
2021/09/18 02:05:48;;;;;;;7.13;6.43;;;;;;;;;;6382077;22;20370;-74
2021/09/18 02:08:14;;;;;;;8.83;7.67;;;;;;;;;;6382374;22;20688;-74
2021/09/18 02:10:40;;;;;;;7.83;7.03;;;;;;;;;;6371199;22;20371;-74
2021/09/18 02:13:07;;;;;;;7.50;6.87;;;;;;;;;;6382154;22;20427;-73
2021/09/18 02:15:33;;;;;;;8.10;6.70;;;;;;;;;;6371309;22;20355;-73
2021/09/18 02:17:59;;;;;;;7.93;7.13;;;;;;;;;;6371194;22;20365;-74
2021/09/18 02:20:26;;;;;;;10.63;7.70;;;;;;;;;;6371218;22;20776;-73
2021/09/18 02:22:52;;;;;;;10.80;8.83;;;;;;;;;;6371183;22;20403;-73
2021/09/18 02:25:18;;;;;;;11.53;8.10;;;;;;;;;;6381483;22;20698;-73
2021/09/18 02:27:45;;;;;;;8.30;7.53;;;;;;;;;;6370649;22;20458;-73
2021/09/18 02:30:12;;;;;;;10.00;9.00;;;;;;;;;;6381680;22;20676;-73
2021/09/18 02:35:42;;;;;;;9.87;8.70;;;;;;;;;;6381711;22;20370;-73
2021/09/18 02:38:08;;;;;;;12.10;8.47;;;;;;;;;;6371249;22;20368;-73
2021/09/18 02:40:39;;;;;;;10.93;9.77;;;;;;;;;;6370654;22;20909;-73
2021/09/18 02:43:05;;;;;;;10.10;9.20;;;;;;;;;;6371045;22;20391;-73
2021/09/18 02:45:31;;;;;;;9.50;8.47;;;;;;;;;;6371079;22;20446;-73
2021/09/18 02:51:00;;;;;;;12.90;8.10;;;;;;;;;;6381687;22;20374;-74
2021/09/18 02:53:26;;;;;;;12.60;8.90;;;;;;;;;;6370844;22;20418;-73
2021/09/18 02:55:52;;;;;;;8.57;7.77;;;;;;;;;;6371003;22;20403;-74
2021/09/18 02:58:18;;;;;;;10.77;9.33;;;;;;;;;;6370848;22;20364;-73
2021/09/18 03:00:44;;;;;;;9.27;8.27;;;;;;;;;;6342544;22;20716;-73
2021/09/18 03:06:14;;;;;;;12.77;8.30;;;;;;;;;;6381365;22;20890;-73
2021/09/18 03:08:40;;;;;;;8.83;7.60;;;;;;;;;;6370832;22;20375;-73
2021/09/18 03:11:06;;;;;;;10.07;8.23;;;;;;;;;;6381446;22;20380;-73
2021/09/18 03:13:32;;;;;;;9.73;7.97;;;;;;;;;;6370643;22;20427;-73
2021/09/18 03:15:58;;;;;;;11.33;7.70;;;;;;;;;;6370802;22;20368;-73
2021/09/18 03:21:27;;;;;;;8.17;7.37;;;;;;;;;;6381347;22;20408;-75
2021/09/18 03:23:53;;;;;;;8.80;6.80;;;;;;;;;;6370658;22;20352;-73
2021/09/18 03:26:19;;;;;;;9.97;7.43;;;;;;;;;;6370344;22;20423;-74
2021/09/18 03:28:45;;;;;;;11.00;8.20;;;;;;;;;;6370737;22;20382;-74
2021/09/18 03:31:11;;;;;;;7.77;7.13;;;;;;;;;;6381458;22;20705;-73
2021/09/18 03:33:39;;;;;;;8.23;7.40;;;;;;;;;;6341815;22;20435;-73
2021/09/18 03:36:05;;;;;;;9.10;8.20;;;;;;;;;;6380841;22;20375;-74
2021/09/18 03:38:31;;;;;;;9.23;8.30;;;;;;;;;;6370450;22;20420;-73
2021/09/18 03:40:57;;;;;;;9.93;8.60;;;;;;;;;;6370357;22;20454;-73
2021/09/18 03:43:23;;;;;;;10.20;8.50;;;;;;;;;;6381371;22;20677;-74
2021/09/18 03:45:51;;;;;;;9.17;8.20;;;;;;;;;;6370490;22;20452;-73
2021/09/18 03:51:20;;;;;;;9.27;8.20;;;;;;;;;;6380597;22;20378;-73
2021/09/18 03:53:46;;;;;;;11.43;8.63;;;;;;;;;;6380740;22;20812;-73
2021/09/18 03:56:12;;;;;;;12.10;9.00;;;;;;;;;;6369769;22;20422;-74
2021/09/18 03:58:38;;;;;;;8.60;7.80;;;;;;;;;;6370282;22;20459;-73
2021/09/18 04:01:04;;;;;;;9.43;8.43;;;;;;;;;;6370193;22;20819;-73
2021/09/18 04:06:34;;;;;;;10.37;7.97;;;;;;;;;;6380422;22;20366;-74
2021/09/18 04:09:00;;;;;;;12.33;9.23;;;;;;;;;;6381014;22;20367;-74
2021/09/18 04:11:25;;;;;;;10.00;8.20;;;;;;;;;;6370033;22;20355;-73
2021/09/18 04:13:51;;;;;;;9.73;8.00;;;;;;;;;;6370068;22;20419;-73
2021/09/18 04:16:19;;;;;;;12.57;8.90;;;;;;;;;;6370308;22;20391;-73
2021/09/18 04:21:48;;;;;;;8.60;7.77;;;;;;;;;;6380562;22;20886;-74
2021/09/18 04:24:14;;;;;;;8.73;7.83;;;;;;;;;;6370055;22;20363;-73
2021/09/18 04:26:40;;;;;;;10.50;8.87;;;;;;;;;;6374510;22;20497;-74
2021/09/18 04:29:06;;;;;;;9.60;8.70;;;;;;;;;;6369351;22;20395;-73
2021/09/18 04:31:33;;;;;;;10.73;8.43;;;;;;;;;;6380148;22;20371;-73
2021/09/18 04:37:02;;;;;;;11.00;8.83;;;;;;;;;;6380671;22;20664;-73
2021/09/18 04:39:28;;;;;;;8.47;7.67;;;;;;;;;;6369821;22;20429;-73
2021/09/18 04:41:54;;;;;;;9.33;8.20;;;;;;;;;;6379948;22;20403;-73
2021/09/18 04:44:20;;;;;;;9.33;8.47;;;;;;;;;;6370047;22;20396;-73
2021/09/18 04:46:46;;;;;;;8.80;7.90;;;;;;;;;;6370109;22;20372;-72
2021/09/18 04:52:16;;;;;;;9.07;6.97;;;;;;;;;;6380586;22;20451;-73
2021/09/18 04:54:42;;;;;;;9.10;7.30;;;;;;;;;;6369957;22;20383;-73
2021/09/18 04:57:08;;;;;;;8.60;7.80;;;;;;;;;;6380943;22;20451;-73
2021/09/18 04:59:34;;;;;;;8.53;7.40;;;;;;;;;;6370015;22;20364;-74
2021/09/18 05:02:00;;;;;;;8.37;7.13;;;;;;;;;;6366574;22;20375;-74
2021/09/18 05:07:29;;;;;;;9.03;7.20;;;;;;;;;;6380521;22;20415;-73
2021/09/18 05:09:57;;;;;;;8.17;7.40;;;;;;;;;;6341915;22;20919;-73
2021/09/18 05:12:23;;;;;;;8.07;7.37;;;;;;;;;;6380645;22;20371;-73
2021/09/18 05:14:48;;;;;;;8.80;7.80;;;;;;;;;;6369951;22;20383;-73
2021/09/18 05:17:15;;;;;;;7.77;6.70;;;;;;;;;;6370740;22;20424;-73
2021/09/18 05:19:40;;;;;;;8.10;7.37;;;;;;;;;;6371951;22;20375;-73
2021/09/18 05:22:07;;;;;;;8.03;7.23;;;;;;;;;;6372008;22;20466;-73
2021/09/18 05:24:33;;;;;;;11.67;9.00;;;;;;;;;;6371713;22;20373;-73
2021/09/18 05:26:59;;;;;;;9.30;8.40;;;;;;;;;;6371618;22;20429;-74
2021/09/18 05:29:25;;;;;;;11.87;8.20;;;;;;;;;;6371918;22;20379;-73
2021/09/18 05:31:51;;;;;;;13.83;9.13;;;;;;;;;;6382783;22;20471;-73
2021/09/18 05:37:20;;;;;;;11.57;8.53;;;;;;;;;;6382335;22;20409;-73
2021/09/18 05:39:46;;;;;;;10.47;9.37;;;;;;;;;;6371570;22;20359;-74
2021/09/18 05:42:12;;;;;;;11.00;9.60;;;;;;;;;;6371605;22;20371;-73
2021/09/18 05:44:38;;;;;;;10.43;9.33;;;;;;;;;;6371772;22;20363;-73
2021/09/18 05:47:04;;;;;;;12.10;9.63;;;;;;;;;;6371777;22;20370;-74
2021/09/18 05:52:33;;;;;;;13.77;9.73;;;;;;;;;;6382098;22;20366;-74
2021/09/18 05:54:59;;;;;;;13.67;10.40;;;;;;;;;;6371462;22;20367;-73
2021/09/18 05:57:25;;;;;;;17.83;9.67;;;;;;;;;;6371459;22;20683;-74
2021/09/18 05:59:51;;;;;;;12.23;10.60;;;;;;;;;;6371504;22;20374;-73
2021/09/18 06:02:17;;;;;;;17.43;10.40;;;;;;;;;;6371498;22;20359;-72
2021/09/18 06:07:47;;;;;;;11.53;10.13;;;;;;;;;;6382093;22;20412;-74
2021/09/18 06:10:13;;;;;;;11.23;10.13;;;;;;;;;;6343389;22;20359;-73
2021/09/18 06:12:39;;;;;;;12.30;11.07;;;;;;;;;;6371592;22;20407;-72
2021/09/18 06:15:05;;;;;;;11.77;10.63;;;;;;;;;;6371337;22;20380;-72
2021/09/18 06:17:31;;;;;;;10.80;9.60;;;;;;;;;;6371378;22;20359;-73
2021/09/18 06:23:00;;;;;;;12.33;10.67;;;;;;;;;;6382034;22;20374;-73
2021/09/18 06:25:26;;;;;;;14.93;11.13;;;;;;;;;;6371304;22;20364;-73
2021/09/18 06:27:53;;;;;;;17.17;10.43;;;;;;;;;;6370897;22;20834;-74
2021/09/18 06:30:19;;;;;;;11.00;9.90;;;;;;;;;;6343010;22;20401;-74
2021/09/18 06:32:45;;;;;;;10.17;9.27;;;;;;;;;;6343388;22;20461;-73
2021/09/18 06:38:17;;;;;;;13.10;9.70;;;;;;;;;;6381823;22;20581;-73
2021/09/18 06:40:43;;;;;;;11.67;10.00;;;;;;;;;;6371094;22;20408;-72
2021/09/18 06:43:09;;;;;;;9.87;8.87;;;;;;;;;;6370441;22;20679;-72
2021/09/18 06:45:35;;;;;;;10.37;9.37;;;;;;;;;;6381959;22;20367;-74
2021/09/18 06:48:01;;;;;;;10.30;9.20;;;;;;;;;;6371200;22;20356;-73
2021/09/18 06:53:30;;;;;;;11.83;10.63;;;;;;;;;;6381562;22;20426;-73
2021/09/18 06:55:56;;;;;;;10.30;9.30;;;;;;;;;;6370886;22;20475;-73
2021/09/18 06:58:22;;;;;;;11.27;9.73;;;;;;;;;;6371073;22;20403;-73
2021/09/18 07:00:48;;;;;;;15.27;10.17;;;;;;;;;;6370151;22;20541;-72
2021/09/18 07:03:14;;;;;;;11.20;9.77;;;;;;;;;;6370844;22;20769;-73
2021/09/18 07:05:41;;;;;;;11.90;9.33;;;;;;;;;;6367320;22;20374;-74
2021/09/18 07:08:07;;;;;;;10.43;9.20;;;;;;;;;;6381573;22;20390;-74
2021/09/18 07:10:33;;;;;;;10.60;9.37;;;;;;;;;;6370776;22;20740;-74
2021/09/18 07:12:59;;;;;;;10.20;9.20;;;;;;;;;;6370760;22;20495;-74
2021/09/18 07:15:25;;;;;;;10.70;8.47;;;;;;;;;;6381712;22;20410;-74
2021/09/18 07:17:51;;;;;;;8.83;7.93;;;;;;;;;;6381309;22;20367;-74
2021/09/18 07:23:20;;;;;;;8.77;7.97;;;;;;;;;;6380530;22;20412;-74
2021/09/18 07:25:46;;;;;;;10.53;9.53;;;;;;;;;;6380187;22;20673;-75
2021/09/18 07:28:12;;;;;;;11.70;8.77;;;;;;;;;;6370517;22;20408;-73
2021/09/18 07:30:38;;;;;;;13.77;8.70;;;;;;;;;;6370642;22;20359;-75
2021/09/18 07:33:04;;;;;;;10.03;8.47;;;;;;;;;;6381593;22;20711;-74
2021/09/18 07:38:34;;;;;;;8.77;8.03;;;;;;;;;;6381107;22;20373;-74
2021/09/18 07:41:00;;;;;;;13.30;9.00;;;;;;;;;;6380806;22;20375;-74
2021/09/18 07:43:26;;;;;;;9.20;8.30;;;;;;;;;;6370597;22;20367;-75
2021/09/18 07:45:52;;;;;;;10.10;9.03;;;;;;;;;;6370541;22;20631;-74
2021/09/18 07:48:18;;;;;;;9.97;9.00;;;;;;;;;;6381504;22;20611;-74
2021/09/18 07:53:48;;;;;;;10.67;9.60;;;;;;;;;;6381064;22;20516;-75
2021/09/18 07:56:14;;;;;;;10.03;8.87;;;;;;;;;;6370327;22;20838;-75
2021/09/18 07:58:40;;;;;;;8.70;7.80;;;;;;;;;;6370467;22;20383;-74
2021/09/18 08:01:05;;;;;;;8.77;7.60;;;;;;;;;;6370535;22;20403;-75
2021/09/18 08:03:31;;;;;;;9.03;7.57;;;;;;;;;;6370479;22;20848;-74
2021/09/18 08:09:02;;;;;;;9.00;7.20;;;;;;;;;;6380975;22;20450;-75
2021/09/18 08:11:28;;;;;;;7.93;7.33;;;;;;;;;;6370072;22;20439;-74
2021/09/18 08:13:55;;;;;;;8.53;7.80;;;;;;;;;;6370235;22;20423;-74
2021/09/18 08:16:22;;;;;;;10.77;7.90;;;;;;;;;;6380797;22;20417;-75
2021/09/18 08:24:36;;;;;;;11.87;8.80;;;;;;;;;;6380797;22;20423;-75
2021/09/18 08:27:02;;;;;;;10.03;9.03;;;;;;;;;;6373244;22;20533;-74
2021/09/18 08:29:28;;;;;;;10.93;9.67;;;;;;;;;;6370114;22;20398;-75
2021/09/18 08:31:54;;;;;;;10.40;9.47;;;;;;;;;;6342457;22;20869;-75
2021/09/18 08:34:20;;;;;;;10.20;8.37;;;;;;;;;;6369970;22;20418;-75
2021/09/18 08:36:46;;;;;;;8.90;8.20;;;;;;;;;;6369909;22;20370;-73
2021/09/18 08:39:12;;;;;;;9.10;8.30;;;;;;;;;;6369830;22;20393;-76
2021/09/18 08:41:38;;;;;;;8.17;7.37;;;;;;;;;;6369897;22;20371;-74
2021/09/18 08:44:04;;;;;;;8.83;8.13;;;;;;;;;;6370115;22;20371;-74
2021/09/18 08:46:30;;;;;;;8.33;7.27;;;;;;;;;;6370015;22;20360;-74
2021/09/18 08:54:45;;;;;;;8.83;7.90;;;;;;;;;;6382510;22;20453;-75
2021/09/18 08:57:12;;;;;;;7.93;7.30;;;;;;;;;;6382887;22;20401;-75
2021/09/18 08:59:39;;;;;;;6.70;6.20;;;;;;;;;;6382840;22;20393;-75
2021/09/18 09:02:09;;;;;;;6.83;6.33;;;;;;;;;;6344070;22;20430;-75
2021/09/18 09:04:35;;;;;;;6.00;5.40;;;;;;;;;;6371839;22;20368;-75
2021/09/18 09:07:01;;;;;;;6.57;5.90;;;;;;;;;;6371859;22;20382;-76
2021/09/18 09:09:35;;;;;;;6.30;5.80;;;;;;;;;;6382667;22;20379;-74
2021/09/18 09:12:01;;;;;;;6.77;6.27;;;;;;;;;;6371835;22;20375;-75
2021/09/18 09:14:42;;;;;;;6.60;6.00;;;;;;;;;;6371803;22;20426;-75
2021/09/18 09:17:08;;;;;;;7.47;6.73;;;;;;;;;;6344015;22;20469;-74
2021/09/18 09:19:41;;;;;;;8.27;7.43;;;;;;;;;;6343806;22;20882;-74
2021/09/18 09:22:07;;;;;;;7.63;6.93;;;;;;;;;;6371858;22;20370;-75
2021/09/18 09:24:33;;;;;;;7.80;7.10;;;;;;;;;;6371714;22;20367;-75
2021/09/18 09:27:09;;;;;;;7.73;7.13;;;;;;;;;;6371506;22;20423;-76
2021/09/18 09:29:39;;;;;;;7.60;7.10;;;;;;;;;;6382702;22;20679;-74
2021/09/18 09:32:24;;;;;;;7.87;7.10;;;;;;;;;;6371752;22;20360;-74
2021/09/18 09:34:53;;;;;;;6.60;6.00;;;;;;;;;;6343729;22;20410;-74
2021/09/18 09:37:19;;;;;;;7.57;6.97;;;;;;;;;;6371479;22;20379;-75
2021/09/18 09:39:50;;;;;;;8.00;6.90;;;;;;;;;;6371558;22;20359;-74
2021/09/18 09:42:16;;;;;;;6.63;6.03;;;;;;;;;;6371507;22;20374;-75
2021/09/18 09:44:42;;;;;;;10.00;6.83;;;;;;;;;;6371449;22;20410;-74
2021/09/18 09:47:09;;;;;;;8.40;7.03;;;;;;;;;;6371591;22;20363;-74
2021/09/18 09:50:03;;;;;;;6.87;6.17;;;;;;;;;;6371457;22;20779;-74
2021/09/18 09:52:33;;;;;;;4.17;3.70;;;;;;;;;;6371411;22;20365;-74
2021/09/18 09:55:12;;;;;;;4.70;4.10;;;;;;;;;;6371379;22;20374;-75
2021/09/18 09:57:39;;;;;;;5.37;3.93;;;;;;;;;;6371571;22;20366;-74
2021/09/18 10:00:07;;;;;;;4.43;4.03;;;;;;;;;;6371537;22;20744;-75
2021/09/18 10:02:33;;;;;;;6.10;3.57;;;;;;;;;;6371347;22;20416;-75
2021/09/18 10:04:59;;;;;;;3.87;2.97;;;;;;;;;;6370899;22;20447;-74
2021/09/18 10:07:25;;;;;;;5.00;2.80;;;;;;;;;;6371573;22;20370;-75
2021/09/18 10:09:51;;;;;;;3.20;2.90;;;;;;;;;;6371425;22;20690;-74
2021/09/18 10:12:17;;;;;;;2.40;1.90;;;;;;;;;;6371440;22;20363;-74
2021/09/18 10:14:48;;;;;;;3.57;2.67;;;;;;;;;;6371432;22;20522;-74
2021/09/18 10:17:14;;;;;;;3.23;2.53;;;;;;;;;;6371128;22;20434;-75
2021/09/18 10:24:52;;;;;;;2.43;2.23;;;;;;;;;;6381413;22;20382;-75
2021/09/18 10:27:20;;;;;;;3.30;3.10;;;;;;;;;;6371061;22;20541;-75
2021/09/18 10:29:50;;;;;;;3.57;2.37;;;;;;;;;;6371343;22;20391;-75
2021/09/18 10:32:17;;;;;;;5.23;2.23;;;;;;;;;;6371157;22;20450;-75
2021/09/18 10:34:43;;;;;;;2.57;2.27;;;;;;;;;;6371001;22;20419;-74
2021/09/18 10:37:27;;;;;;;2.40;2.20;;;;;;;;;;6371222;22;20374;-74
2021/09/18 10:40:10;;;;;;;2.67;2.17;;;;;;;;;;6369435;22;20364;-74
2021/09/18 10:42:37;;;;;;;2.23;2.03;;;;;;;;;;6368643;22;20363;-74
2021/09/18 10:45:04;;;;;;;2.60;2.30;;;;;;;;;;6369934;22;20860;-74
2021/09/18 10:47:35;;;;;;;1.90;1.80;;;;;;;;;;6370088;22;20451;-74
2021/09/18 10:50:01;;;;;;;2.73;1.20;;;;;;;;;;6369873;22;20404;-75
2021/09/18 10:52:29;;;;;;;1.63;1.30;;;;;;;;;;6369634;22;20355;-74
2021/09/18 10:55:10;;;;;;;1.20;1.10;;;;;;;;;;6380468;22;20395;-74
2021/09/18 10:57:45;;;;;;;1.80;1.40;;;;;;;;;;6369713;22;20814;-76
2021/09/18 11:00:20;;;;;;;2.13;1.70;;;;;;;;;;6376773;22;20401;-74
2021/09/18 11:02:53;;;;;;;2.10;2.00;;;;;;;;;;6380483;22;20382;-73
2021/09/18 11:05:19;;;;;;;1.47;1.37;;;;;;;;;;6380617;22;20383;-72
2021/09/18 11:07:46;;;;;;;1.87;1.50;;;;;;;;;;6380643;22;20733;-73
2021/09/18 11:10:13;;;;;;;2.93;1.40;;;;;;;;;;6369584;22;20413;-74
2021/09/18 11:12:40;;;;;;;1.50;1.40;;;;;;;;;;6369297;22;20363;-73
2021/09/18 11:15:07;;;;;;;1.93;1.83;;;;;;;;;;6369395;22;20375;-73
2021/09/18 11:17:34;;;;;;;2.03;1.20;;;;;;;;;;6369610;22;20399;-73
2021/09/18 11:26:32;;;;;;;2.03;1.57;;;;;;;;;;6379539;22;20982;-74
2021/09/18 11:29:28;;;;;;;2.20;1.10;;;;;;;;;;6355941;22;20394;-72
2021/09/18 11:31:57;;;;;;;1.70;1.60;;;;;;;;;;6328614;22;20406;-74
2021/09/18 11:34:24;;;;;;;1.70;1.60;;;;;;;;;;6370432;22;20422;-73
2021/09/18 11:36:50;;;;;;;1.60;1.50;;;;;;;;;;6370343;22;20364;-73
2021/09/18 11:39:34;;;;;;;3.97;2.47;;;;;;;;;;6370520;22;20638;-72
2021/09/18 11:42:12;;;;;;;1.87;1.77;;;;;;;;;;6381460;22;20363;-73
2021/09/18 11:44:38;;;;;;;2.43;2.23;;;;;;;;;;6370518;22;20366;-73
2021/09/18 11:47:05;;;;;;;1.50;1.40;;;;;;;;;;6381325;22;20693;-72
2021/09/18 11:49:31;;;;;;;1.80;1.70;;;;;;;;;;6370342;22;20399;-72
2021/09/18 11:52:01;;;;;;;1.83;1.63;;;;;;;;;;6380847;22;20383;-72
2021/09/18 11:54:27;;;;;;;2.33;1.70;;;;;;;;;;6370130;22;20422;-72
2021/09/18 11:56:53;;;;;;;1.97;1.87;;;;;;;;;;6370498;22;20402;-71
2021/09/18 11:59:19;;;;;;;1.60;1.50;;;;;;;;;;6370256;22;20424;-72
2021/09/18 12:01:48;;;;;;;1.77;1.67;;;;;;;;;;6370285;22;20505;-73
2021/09/18 12:04:14;;;;;;;2.60;2.40;;;;;;;;;;6369775;22;20399;-72
2021/09/18 12:06:40;;;;;;;4.07;2.50;;;;;;;;;;6380777;22;20363;-70
2021/09/18 12:09:07;;;;;;;2.37;2.17;;;;;;;;;;6380501;22;20375;-73
2021/09/18 12:11:38;;;;;;;2.33;2.20;;;;;;;;;;6341951;22;20383;-74
2021/09/18 12:14:04;;;;;;;2.63;1.80;;;;;;;;;;6369966;22;20426;-71
2021/09/18 12:16:33;;;;;;;1.83;1.73;;;;;;;;;;6342611;22;20443;-73
2021/09/18 12:19:00;;;;;;;1.60;1.50;;;;;;;;;;6380431;22;20386;-73
2021/09/18 12:21:27;;;;;;;2.20;2.10;;;;;;;;;;6369913;22;20793;-72
2021/09/18 12:23:57;;;;;;;2.87;2.17;;;;;;;;;;6370010;22;20376;-74
2021/09/18 12:26:25;;;;;;;2.30;2.10;;;;;;;;;;6369373;22;20464;-71
2021/09/18 12:29:02;;;;;;;2.10;2.00;;;;;;;;;;6342084;22;20457;-71
2021/09/18 12:31:28;;;;;;;2.77;2.57;;;;;;;;;;6370121;22;20363;-72
2021/09/18 12:33:54;;;;;;;2.17;1.97;;;;;;;;;;6370063;22;20544;-71
2021/09/18 12:36:23;;;;;;;1.90;1.80;;;;;;;;;;6369968;22;20370;-72
2021/09/18 12:38:49;;;;;;;2.03;1.93;;;;;;;;;;6369818;22;20375;-73
2021/09/18 12:41:17;;;;;;;2.33;2.20;;;;;;;;;;6369838;22;20382;-74
2021/09/18 12:44:00;;;;;;;2.40;2.03;;;;;;;;;;6370053;22;20391;-71
2021/09/18 12:46:26;;;;;;;2.40;2.20;;;;;;;;;;6369910;22;20364;-71
2021/09/18 12:48:57;;;;;;;2.50;2.30;;;;;;;;;;6380484;22;20711;-71
2021/09/18 12:51:23;;;;;;;2.70;2.50;;;;;;;;;;6369845;22;20366;-72
2021/09/18 12:53:51;;;;;;;4.40;2.70;;;;;;;;;;6380724;22;20430;-73
2021/09/18 12:56:19;;;;;;;4.20;2.20;;;;;;;;;;6341658;22;20737;-71
2021/09/18 12:58:46;;;;;;;2.60;2.40;;;;;;;;;;6380868;22;20383;-71
2021/09/18 13:01:13;;;;;;;2.70;2.50;;;;;;;;;;6369770;22;20359;-71
2021/09/18 13:03:40;;;;;;;3.00;2.33;;;;;;;;;;6369738;22;20377;-71
2021/09/18 13:12:17;;;;;;;2.80;2.50;;;;;;;;;;6379935;22;20416;-74
2021/09/18 13:14:47;;;;;;;2.70;2.50;;;;;;;;;;6341293;22;20466;-76
2021/09/18 13:17:13;;;;;;;4.20;2.43;;;;;;;;;;6369265;22;20379;-74
2021/09/18 13:19:45;;;;;;;3.97;3.13;;;;;;;;;;6369446;22;20378;-75
2021/09/18 13:22:12;;;;;;;2.80;2.60;;;;;;;;;;6369380;22;20367;-74
2021/09/18 13:24:38;;;;;;;2.40;2.23;;;;;;;;;;6369353;22;20432;-72
2021/09/18 13:27:04;;;;;;;3.17;2.87;;;;;;;;;;6368494;22;20450;-74
2021/09/18 13:29:30;;;;;;;3.10;2.90;;;;;;;;;;6369090;22;20756;-75
2021/09/18 13:31:57;;;;;;;2.60;2.40;;;;;;;;;;6369363;22;20355;-74
2021/09/18 13:34:23;;;;;;;2.77;2.57;;;;;;;;;;6369242;22;20492;-76
2021/09/18 13:36:50;;;;;;;2.60;2.40;;;;;;;;;;6369305;22;20417;-75
2021/09/18 13:39:17;;;;;;;2.43;2.23;;;;;;;;;;6343023;22;20417;-74
2021/09/18 13:41:43;;;;;;;3.13;2.83;;;;;;;;;;6343003;22;20391;-73
2021/09/18 13:44:09;;;;;;;2.40;2.30;;;;;;;;;;6371344;22;20374;-74
2021/09/18 13:46:35;;;;;;;2.90;2.70;;;;;;;;;;6382248;22;20420;-73
2021/09/18 13:49:01;;;;;;;2.60;2.40;;;;;;;;;;6382261;22;20383;-73
2021/09/18 13:51:27;;;;;;;3.10;2.80;;;;;;;;;;6343204;22;20972;-73
2021/09/18 13:56:57;;;;;;;2.73;2.53;;;;;;;;;;6381590;22;20416;-74
2021/09/18 13:59:23;;;;;;;3.23;2.60;;;;;;;;;;6382079;22;20521;-74
2021/09/18 14:01:49;;;;;;;2.17;2.00;;;;;;;;;;6371103;22;20359;-74
2021/09/18 14:04:15;;;;;;;2.37;2.27;;;;;;;;;;6371051;22;20461;-74
2021/09/18 14:06:41;;;;;;;2.50;2.30;;;;;;;;;;6370556;22;20362;-74
2021/09/18 14:09:08;;;;;;;4.03;2.37;;;;;;;;;;6382001;22;20676;-74
2021/09/18 14:11:35;;;;;;;2.70;2.50;;;;;;;;;;6370832;22;20415;-73
2021/09/18 14:14:01;;;;;;;3.50;2.20;;;;;;;;;;6370767;22;20419;-73
2021/09/18 14:16:27;;;;;;;2.40;2.20;;;;;;;;;;6370967;22;20363;-74
2021/09/18 14:18:53;;;;;;;2.60;2.40;;;;;;;;;;6381718;22;20379;-73
2021/09/18 14:21:19;;;;;;;2.80;2.20;;;;;;;;;;6370743;22;20370;-73
2021/09/18 14:26:49;;;;;;;3.87;2.40;;;;;;;;;;6380856;22;20926;-74
2021/09/18 14:29:15;;;;;;;2.97;2.77;;;;;;;;;;6370844;22;20360;-74
2021/09/18 14:31:41;;;;;;;2.83;2.63;;;;;;;;;;6370789;22;20376;-75
2021/09/18 14:34:07;;;;;;;3.40;2.53;;;;;;;;;;6342582;22;20957;-74
2021/09/18 14:36:33;;;;;;;3.07;2.83;;;;;;;;;;6370699;22;20376;-74
2021/09/18 14:42:02;;;;;;;2.33;2.13;;;;;;;;;;6381224;22;20749;-74
2021/09/18 14:44:28;;;;;;;2.50;2.30;;;;;;;;;;6370628;22;20368;-74
2021/09/18 14:46:54;;;;;;;3.67;2.60;;;;;;;;;;6370592;22;20455;-73
2021/09/18 14:49:20;;;;;;;3.67;3.37;;;;;;;;;;6370068;22;20364;-73
2021/09/18 14:51:46;;;;;;;3.33;3.10;;;;;;;;;;6370607;22;20382;-73
2021/09/18 14:57:16;;;;;;;3.40;3.20;;;;;;;;;;6380982;22;20394;-74
2021/09/18 14:59:42;;;;;;;3.30;3.07;;;;;;;;;;6380559;22;20394;-73
2021/09/18 15:02:10;;;;;;;4.80;4.50;;;;;;;;;;6370445;22;20491;-74
2021/09/18 15:04:36;;;;;;;4.10;3.80;;;;;;;;;;6342263;22;20372;-74
2021/09/18 15:07:03;;;;;;;3.50;3.30;;;;;;;;;;6370306;22;20834;-73
2021/09/18 15:12:32;;;;;;;3.40;3.10;;;;;;;;;;6380268;22;20366;-73
2021/09/18 15:14:58;;;;;;;4.00;3.70;;;;;;;;;;6369793;22;20439;-73
2021/09/18 15:17:24;;;;;;;4.47;4.17;;;;;;;;;;6381003;22;20371;-73
2021/09/18 15:19:50;;;;;;;4.23;3.93;;;;;;;;;;6369980;22;20379;-73
2021/09/18 15:28:04;;;;;;;4.00;3.70;;;;;;;;;;6380542;22;20543;-72
2021/09/18 15:30:31;;;;;;;4.43;4.10;;;;;;;;;;6370098;22;20470;-72
2021/09/18 15:32:57;;;;;;;4.53;3.80;;;;;;;;;;6380833;22;20469;-73
2021/09/18 15:35:23;;;;;;;4.10;3.80;;;;;;;;;;6369800;22;20367;-72
2021/09/18 15:37:49;;;;;;;4.40;4.00;;;;;;;;;;6370026;22;20367;-73
2021/09/18 15:40:15;;;;;;;3.60;3.30;;;;;;;;;;6369844;22;20701;-71
2021/09/18 15:42:41;;;;;;;3.83;3.40;;;;;;;;;;6369931;22;20387;-71
2021/09/18 15:45:08;;;;;;;4.00;3.70;;;;;;;;;;6380845;22;20540;-73
2021/09/18 15:47:34;;;;;;;4.53;3.87;;;;;;;;;;6380707;22;20390;-74
2021/09/18 15:50:00;;;;;;;3.77;3.53;;;;;;;;;;6369766;22;20355;-73
2021/09/18 15:52:26;;;;;;;3.80;3.50;;;;;;;;;;6369603;22;20375;-73
2021/09/18 15:57:55;;;;;;;5.03;4.37;;;;;;;;;;6380240;22;20694;-74
2021/09/18 16:00:21;;;;;;;4.53;3.57;;;;;;;;;;6369572;22;20368;-73
2021/09/18 16:02:47;;;;;;;4.80;4.40;;;;;;;;;;6369246;22;20399;-73
2021/09/18 16:05:13;;;;;;;5.00;4.00;;;;;;;;;;6369622;22;20383;-74
2021/09/18 16:07:39;;;;;;;4.13;3.83;;;;;;;;;;6369256;22;20726;-75
2021/09/18 16:13:09;;;;;;;4.80;4.40;;;;;;;;;;6379726;22;20417;-68
2021/09/18 16:15:35;;;;;;;3.97;3.70;;;;;;;;;;6369572;22;20838;-71
2021/09/18 16:18:01;;;;;;;5.33;4.10;;;;;;;;;;6369701;22;20376;-71
2021/09/18 16:20:29;;;;;;;3.43;3.13;;;;;;;;;;6380210;22;20387;-74
2021/09/18 16:22:55;;;;;;;4.23;3.90;;;;;;;;;;6380106;22;20427;-74
2021/09/18 16:25:21;;;;;;;4.67;4.33;;;;;;;;;;6368860;22;20676;-73
2021/09/18 16:27:47;;;;;;;4.80;4.30;;;;;;;;;;6369263;22;20422;-74
2021/09/18 16:30:14;;;;;;;4.37;4.07;;;;;;;;;;6369603;22;20367;-74
2021/09/18 16:32:41;;;;;;;4.50;4.10;;;;;;;;;;6369318;22;20368;-73
2021/09/18 16:35:08;;;;;;;4.90;3.80;;;;;;;;;;6380266;22;20461;-73
2021/09/18 16:37:34;;;;;;;4.90;4.50;;;;;;;;;;6341467;22;20391;-73
2021/09/18 16:43:03;;;;;;;4.93;4.53;;;;;;;;;;6379920;22;20435;-72
2021/09/18 16:45:29;;;;;;;4.63;4.23;;;;;;;;;;6369679;22;20454;-72
2021/09/18 16:47:55;;;;;;;4.93;4.43;;;;;;;;;;6380166;22;20393;-72
2021/09/18 16:50:22;;;;;;;4.80;4.40;;;;;;;;;;6369169;22;20420;-72
2021/09/18 16:52:48;;;;;;;5.33;4.87;;;;;;;;;;6380208;22;20813;-72
2021/09/18 16:58:18;;;;;;;5.00;4.60;;;;;;;;;;6379765;22;20537;-72
2021/09/18 17:00:44;;;;;;;4.20;3.80;;;;;;;;;;6341434;22;20390;-72
2021/09/18 17:03:10;;;;;;;5.17;4.67;;;;;;;;;;6369475;22;20363;-72
2021/09/18 17:05:36;;;;;;;4.70;4.30;;;;;;;;;;6380155;22;20665;-72
2021/09/18 17:08:02;;;;;;;5.93;5.43;;;;;;;;;;6379834;22;20431;-72